sensor_id;sensor_type;location;lat;lon;timestamp;P1;durP1;ratioP1;P2;durP2;ratioP2
809;SDS011;387;48.772;9.186;2023-12-22T00:00:26;3.20;;;1.33;;
809;SDS011;387;48.772;9.186;2023-12-22T00:02:52;10.13;;;2.20;;
809;SDS011;387;48.772;9.186;2023-12-22T00:05:18;3.67;;;1.50;;
809;SDS011;387;48.772;9.186;2023-12-22T00:07:44;6.13;;;1.50;;
809;SDS011;387;48.772;9.186;2023-12-22T00:10:09;4.57;;;1.80;;
809;SDS011;387;48.772;9.186;2023-12-22T00:12:35;4.30;;;1.90;;
809;SDS011;387;48.772;9.186;2023-12-22T00:15:00;6.70;;;1.80;;
809;SDS011;387;48.772;9.186;2023-12-22T00:17:26;5.90;;;2.43;;
809;SDS011;387;48.772;9.186;2023-12-22T00:19:51;2.80;;;1.63;;
809;SDS011;387;48.772;9.186;2023-12-22T00:22:17;3.43;;;1.80;;
809;SDS011;387;48.772;9.186;2023-12-22T00:24:43;5.43;;;2.50;;
809;SDS011;387;48.772;9.186;2023-12-22T00:27:08;3.43;;;2.03;;
809;SDS011;387;48.772;9.186;2023-12-22T00:29:34;8.87;;;2.23;;
809;SDS011;387;48.772;9.186;2023-12-22T00:32:02;1.83;;;1.23;;
809;SDS011;387;48.772;9.186;2023-12-22T00:34:28;4.00;;;1.70;;
809;SDS011;387;48.772;9.186;2023-12-22T00:36:53;5.33;;;1.83;;
809;SDS011;387;48.772;9.186;2023-12-22T00:39:19;7.53;;;2.00;;
809;SDS011;387;48.772;9.186;2023-12-22T00:41:44;5.87;;;1.97;;
809;SDS011;387;48.772;9.186;2023-12-22T00:44:10;5.47;;;2.93;;
809;SDS011;387;48.772;9.186;2023-12-22T00:46:35;5.37;;;2.27;;
809;SDS011;387;48.772;9.186;2023-12-22T00:49:01;7.10;;;2.40;;
809;SDS011;387;48.772;9.186;2023-12-22T00:51:26;2.70;;;1.60;;
809;SDS011;387;48.772;9.186;2023-12-22T00:53:52;4.77;;;2.07;;
809;SDS011;387;48.772;9.186;2023-12-22T00:56:18;1.90;;;1.40;;
809;SDS011;387;48.772;9.186;2023-12-22T00:58:43;6.23;;;2.20;;
809;SDS011;387;48.772;9.186;2023-12-22T01:01:09;5.00;;;2.10;;
809;SDS011;387;48.772;9.186;2023-12-22T01:03:34;6.07;;;1.90;;
809;SDS011;387;48.772;9.186;2023-12-22T01:06:00;7.77;;;2.03;;
809;SDS011;387;48.772;9.186;2023-12-22T01:08:26;3.87;;;2.13;;
809;SDS011;387;48.772;9.186;2023-12-22T01:10:51;5.67;;;2.27;;
809;SDS011;387;48.772;9.186;2023-12-22T01:13:17;3.33;;;1.60;;
809;SDS011;387;48.772;9.186;2023-12-22T01:15:42;3.50;;;1.93;;
809;SDS011;387;48.772;9.186;2023-12-22T01:18:09;6.30;;;2.27;;
809;SDS011;387;48.772;9.186;2023-12-22T01:20:35;2.90;;;1.93;;
809;SDS011;387;48.772;9.186;2023-12-22T01:23:01;5.33;;;2.00;;
809;SDS011;387;48.772;9.186;2023-12-22T01:25:26;5.83;;;1.93;;
809;SDS011;387;48.772;9.186;2023-12-22T01:27:52;5.13;;;2.33;;
809;SDS011;387;48.772;9.186;2023-12-22T01:30:18;3.10;;;1.70;;
809;SDS011;387;48.772;9.186;2023-12-22T01:32:44;5.27;;;2.17;;
809;SDS011;387;48.772;9.186;2023-12-22T01:35:09;4.93;;;2.00;;
809;SDS011;387;48.772;9.186;2023-12-22T01:37:38;3.90;;;1.33;;
809;SDS011;387;48.772;9.186;2023-12-22T01:40:04;2.57;;;1.40;;
809;SDS011;387;48.772;9.186;2023-12-22T01:42:30;6.03;;;1.43;;
809;SDS011;387;48.772;9.186;2023-12-22T01:44:56;2.30;;;1.03;;
809;SDS011;387;48.772;9.186;2023-12-22T01:47:21;4.83;;;1.40;;
809;SDS011;387;48.772;9.186;2023-12-22T01:49:47;4.10;;;1.30;;
809;SDS011;387;48.772;9.186;2023-12-22T01:52:13;2.50;;;1.17;;
809;SDS011;387;48.772;9.186;2023-12-22T01:54:40;4.30;;;2.03;;
809;SDS011;387;48.772;9.186;2023-12-22T01:57:06;2.93;;;1.10;;
809;SDS011;387;48.772;9.186;2023-12-22T01:59:32;6.17;;;1.20;;
809;SDS011;387;48.772;9.186;2023-12-22T02:02:00;3.93;;;1.00;;
809;SDS011;387;48.772;9.186;2023-12-22T02:04:27;2.50;;;0.90;;
809;SDS011;387;48.772;9.186;2023-12-22T02:06:55;2.03;;;1.10;;
809;SDS011;387;48.772;9.186;2023-12-22T02:09:23;1.87;;;1.20;;
809;SDS011;387;48.772;9.186;2023-12-22T02:11:49;4.30;;;1.30;;
809;SDS011;387;48.772;9.186;2023-12-22T02:14:14;4.30;;;1.23;;
809;SDS011;387;48.772;9.186;2023-12-22T02:19:27;3.70;;;0.90;;
809;SDS011;387;48.772;9.186;2023-12-22T02:22:07;3.57;;;1.57;;
809;SDS011;387;48.772;9.186;2023-12-22T02:24:33;4.30;;;1.17;;
809;SDS011;387;48.772;9.186;2023-12-22T02:27:03;5.57;;;1.20;;
809;SDS011;387;48.772;9.186;2023-12-22T02:29:35;1.87;;;1.07;;
809;SDS011;387;48.772;9.186;2023-12-22T02:32:10;1.80;;;1.10;;
809;SDS011;387;48.772;9.186;2023-12-22T02:34:41;1.80;;;1.10;;
809;SDS011;387;48.772;9.186;2023-12-22T02:37:11;3.40;;;1.33;;
809;SDS011;387;48.772;9.186;2023-12-22T02:39:37;2.70;;;1.13;;
809;SDS011;387;48.772;9.186;2023-12-22T02:42:04;3.67;;;1.20;;
809;SDS011;387;48.772;9.186;2023-12-22T02:44:31;2.47;;;1.33;;
809;SDS011;387;48.772;9.186;2023-12-22T02:46:57;4.07;;;1.60;;
809;SDS011;387;48.772;9.186;2023-12-22T02:49:23;6.10;;;2.00;;
809;SDS011;387;48.772;9.186;2023-12-22T02:51:49;5.17;;;1.20;;
809;SDS011;387;48.772;9.186;2023-12-22T02:54:14;4.40;;;1.50;;
809;SDS011;387;48.772;9.186;2023-12-22T02:56:40;8.00;;;1.60;;
809;SDS011;387;48.772;9.186;2023-12-22T02:59:07;8.67;;;1.40;;
809;SDS011;387;48.772;9.186;2023-12-22T03:01:34;3.73;;;1.43;;
809;SDS011;387;48.772;9.186;2023-12-22T03:04:00;4.03;;;1.30;;
809;SDS011;387;48.772;9.186;2023-12-22T03:06:25;8.00;;;2.77;;
809;SDS011;387;48.772;9.186;2023-12-22T03:08:51;2.67;;;1.50;;
809;SDS011;387;48.772;9.186;2023-12-22T03:11:16;2.90;;;1.40;;
809;SDS011;387;48.772;9.186;2023-12-22T03:13:42;2.20;;;1.23;;
809;SDS011;387;48.772;9.186;2023-12-22T03:16:08;5.63;;;1.77;;
809;SDS011;387;48.772;9.186;2023-12-22T03:18:34;11.53;;;1.90;;
809;SDS011;387;48.772;9.186;2023-12-22T03:20:59;3.97;;;1.63;;
809;SDS011;387;48.772;9.186;2023-12-22T03:23:25;4.10;;;1.30;;
809;SDS011;387;48.772;9.186;2023-12-22T03:25:50;3.40;;;1.30;;
809;SDS011;387;48.772;9.186;2023-12-22T03:28:16;7.60;;;1.50;;
809;SDS011;387;48.772;9.186;2023-12-22T03:30:41;8.60;;;1.90;;
809;SDS011;387;48.772;9.186;2023-12-22T03:33:07;2.90;;;1.30;;
809;SDS011;387;48.772;9.186;2023-12-22T03:35:32;2.60;;;1.37;;
809;SDS011;387;48.772;9.186;2023-12-22T03:37:58;4.77;;;1.17;;
809;SDS011;387;48.772;9.186;2023-12-22T03:40:24;5.80;;;2.17;;
809;SDS011;387;48.772;9.186;2023-12-22T03:42:49;4.33;;;1.30;;
809;SDS011;387;48.772;9.186;2023-12-22T03:45:15;3.97;;;1.47;;
809;SDS011;387;48.772;9.186;2023-12-22T03:47:40;2.67;;;1.57;;
809;SDS011;387;48.772;9.186;2023-12-22T03:50:06;3.90;;;1.20;;
809;SDS011;387;48.772;9.186;2023-12-22T03:52:32;5.77;;;1.73;;
809;SDS011;387;48.772;9.186;2023-12-22T03:54:57;6.90;;;1.70;;
809;SDS011;387;48.772;9.186;2023-12-22T03:57:23;4.40;;;1.40;;
809;SDS011;387;48.772;9.186;2023-12-22T03:59:48;6.30;;;1.60;;
809;SDS011;387;48.772;9.186;2023-12-22T04:02:14;11.70;;;1.80;;
809;SDS011;387;48.772;9.186;2023-12-22T04:04:40;7.77;;;1.70;;
809;SDS011;387;48.772;9.186;2023-12-22T04:07:05;4.97;;;1.73;;
809;SDS011;387;48.772;9.186;2023-12-22T04:09:31;4.77;;;1.60;;
809;SDS011;387;48.772;9.186;2023-12-22T04:11:57;5.43;;;1.33;;
809;SDS011;387;48.772;9.186;2023-12-22T04:14:22;6.97;;;2.27;;
809;SDS011;387;48.772;9.186;2023-12-22T04:16:48;4.87;;;1.60;;
809;SDS011;387;48.772;9.186;2023-12-22T04:19:13;5.30;;;1.60;;
809;SDS011;387;48.772;9.186;2023-12-22T04:21:39;9.70;;;2.37;;
809;SDS011;387;48.772;9.186;2023-12-22T04:24:05;3.60;;;1.43;;
809;SDS011;387;48.772;9.186;2023-12-22T04:26:30;3.90;;;1.70;;
809;SDS011;387;48.772;9.186;2023-12-22T04:28:56;5.20;;;1.60;;
809;SDS011;387;48.772;9.186;2023-12-22T04:31:22;6.60;;;1.73;;
809;SDS011;387;48.772;9.186;2023-12-22T04:33:47;3.67;;;1.80;;
809;SDS011;387;48.772;9.186;2023-12-22T04:36:13;7.10;;;1.83;;
809;SDS011;387;48.772;9.186;2023-12-22T04:38:38;5.77;;;1.70;;
809;SDS011;387;48.772;9.186;2023-12-22T04:41:05;7.43;;;1.60;;
809;SDS011;387;48.772;9.186;2023-12-22T04:43:31;4.83;;;1.50;;
809;SDS011;387;48.772;9.186;2023-12-22T04:45:57;4.93;;;1.20;;
809;SDS011;387;48.772;9.186;2023-12-22T04:48:22;2.50;;;1.30;;
809;SDS011;387;48.772;9.186;2023-12-22T04:50:48;3.20;;;1.30;;
809;SDS011;387;48.772;9.186;2023-12-22T04:53:13;3.03;;;1.40;;
809;SDS011;387;48.772;9.186;2023-12-22T04:55:39;5.17;;;1.23;;
809;SDS011;387;48.772;9.186;2023-12-22T04:58:04;8.20;;;1.80;;
809;SDS011;387;48.772;9.186;2023-12-22T05:00:30;4.20;;;1.37;;
809;SDS011;387;48.772;9.186;2023-12-22T05:02:56;4.20;;;1.40;;
809;SDS011;387;48.772;9.186;2023-12-22T05:05:21;3.07;;;1.20;;
809;SDS011;387;48.772;9.186;2023-12-22T05:07:47;2.40;;;1.10;;
809;SDS011;387;48.772;9.186;2023-12-22T05:10:12;5.33;;;1.30;;
809;SDS011;387;48.772;9.186;2023-12-22T05:12:38;4.67;;;1.67;;
809;SDS011;387;48.772;9.186;2023-12-22T05:15:04;4.60;;;1.40;;
809;SDS011;387;48.772;9.186;2023-12-22T05:17:29;10.63;;;1.70;;
809;SDS011;387;48.772;9.186;2023-12-22T05:19:55;3.00;;;1.63;;
809;SDS011;387;48.772;9.186;2023-12-22T05:22:21;8.53;;;2.27;;
809;SDS011;387;48.772;9.186;2023-12-22T05:24:46;4.40;;;1.70;;
809;SDS011;387;48.772;9.186;2023-12-22T05:27:12;6.37;;;2.10;;
809;SDS011;387;48.772;9.186;2023-12-22T05:29:37;14.73;;;2.03;;
809;SDS011;387;48.772;9.186;2023-12-22T05:32:03;8.27;;;2.10;;
809;SDS011;387;48.772;9.186;2023-12-22T05:34:29;8.97;;;1.87;;
809;SDS011;387;48.772;9.186;2023-12-22T05:36:56;6.03;;;2.77;;
809;SDS011;387;48.772;9.186;2023-12-22T05:39:21;10.50;;;2.13;;
809;SDS011;387;48.772;9.186;2023-12-22T05:41:47;8.83;;;2.13;;
809;SDS011;387;48.772;9.186;2023-12-22T05:44:13;4.50;;;2.17;;
809;SDS011;387;48.772;9.186;2023-12-22T05:46:38;9.43;;;2.60;;
809;SDS011;387;48.772;9.186;2023-12-22T05:49:04;13.57;;;2.40;;
809;SDS011;387;48.772;9.186;2023-12-22T05:51:35;5.07;;;1.87;;
809;SDS011;387;48.772;9.186;2023-12-22T05:54:03;4.40;;;2.30;;
809;SDS011;387;48.772;9.186;2023-12-22T05:56:30;10.97;;;2.10;;
809;SDS011;387;48.772;9.186;2023-12-22T05:58:55;7.20;;;2.23;;
809;SDS011;387;48.772;9.186;2023-12-22T06:01:21;9.83;;;2.57;;
809;SDS011;387;48.772;9.186;2023-12-22T06:03:47;6.87;;;1.70;;
809;SDS011;387;48.772;9.186;2023-12-22T06:06:13;6.57;;;1.73;;
809;SDS011;387;48.772;9.186;2023-12-22T06:08:39;7.63;;;2.47;;
809;SDS011;387;48.772;9.186;2023-12-22T06:11:06;10.00;;;2.47;;
809;SDS011;387;48.772;9.186;2023-12-22T06:13:32;6.07;;;2.30;;
809;SDS011;387;48.772;9.186;2023-12-22T06:15:57;6.93;;;1.93;;
809;SDS011;387;48.772;9.186;2023-12-22T06:18:23;9.80;;;2.47;;
809;SDS011;387;48.772;9.186;2023-12-22T06:20:48;8.30;;;3.10;;
809;SDS011;387;48.772;9.186;2023-12-22T06:23:14;8.73;;;2.13;;
809;SDS011;387;48.772;9.186;2023-12-22T06:25:40;4.40;;;1.90;;
809;SDS011;387;48.772;9.186;2023-12-22T06:28:06;8.10;;;2.10;;
809;SDS011;387;48.772;9.186;2023-12-22T06:30:31;4.03;;;1.70;;
809;SDS011;387;48.772;9.186;2023-12-22T06:32:57;5.33;;;1.80;;
809;SDS011;387;48.772;9.186;2023-12-22T06:35:22;8.43;;;2.50;;
809;SDS011;387;48.772;9.186;2023-12-22T06:37:51;8.70;;;2.73;;
809;SDS011;387;48.772;9.186;2023-12-22T06:40:17;7.40;;;2.00;;
809;SDS011;387;48.772;9.186;2023-12-22T06:42:45;7.00;;;2.30;;
809;SDS011;387;48.772;9.186;2023-12-22T06:45:11;5.57;;;1.83;;
809;SDS011;387;48.772;9.186;2023-12-22T06:47:36;6.57;;;2.30;;
809;SDS011;387;48.772;9.186;2023-12-22T06:50:02;12.13;;;2.33;;
809;SDS011;387;48.772;9.186;2023-12-22T06:52:28;5.00;;;1.80;;
809;SDS011;387;48.772;9.186;2023-12-22T06:54:55;7.27;;;2.30;;
809;SDS011;387;48.772;9.186;2023-12-22T06:57:21;5.67;;;1.93;;
809;SDS011;387;48.772;9.186;2023-12-22T06:59:47;8.50;;;2.50;;
809;SDS011;387;48.772;9.186;2023-12-22T07:02:14;5.33;;;1.53;;
809;SDS011;387;48.772;9.186;2023-12-22T07:07:46;5.20;;;1.90;;
809;SDS011;387;48.772;9.186;2023-12-22T07:10:11;3.53;;;1.50;;
809;SDS011;387;48.772;9.186;2023-12-22T07:12:37;4.27;;;1.80;;
809;SDS011;387;48.772;9.186;2023-12-22T07:15:04;2.50;;;1.33;;
809;SDS011;387;48.772;9.186;2023-12-22T07:17:32;2.90;;;1.10;;
809;SDS011;387;48.772;9.186;2023-12-22T07:19:57;3.87;;;1.67;;
809;SDS011;387;48.772;9.186;2023-12-22T07:22:23;4.37;;;1.77;;
809;SDS011;387;48.772;9.186;2023-12-22T07:24:49;8.10;;;2.00;;
809;SDS011;387;48.772;9.186;2023-12-22T07:27:16;4.37;;;1.87;;
809;SDS011;387;48.772;9.186;2023-12-22T07:29:42;7.63;;;2.30;;
809;SDS011;387;48.772;9.186;2023-12-22T07:32:08;10.93;;;1.80;;
809;SDS011;387;48.772;9.186;2023-12-22T07:34:33;4.10;;;1.60;;
809;SDS011;387;48.772;9.186;2023-12-22T07:36:59;5.53;;;1.97;;
809;SDS011;387;48.772;9.186;2023-12-22T07:39:24;2.60;;;1.30;;
809;SDS011;387;48.772;9.186;2023-12-22T07:41:50;3.80;;;2.03;;
809;SDS011;387;48.772;9.186;2023-12-22T07:44:15;7.23;;;1.77;;
809;SDS011;387;48.772;9.186;2023-12-22T07:46:41;4.30;;;3.00;;
809;SDS011;387;48.772;9.186;2023-12-22T07:49:06;3.50;;;1.20;;
809;SDS011;387;48.772;9.186;2023-12-22T07:51:32;8.30;;;1.90;;
809;SDS011;387;48.772;9.186;2023-12-22T07:53:58;6.53;;;1.63;;
809;SDS011;387;48.772;9.186;2023-12-22T07:56:23;3.87;;;1.80;;
809;SDS011;387;48.772;9.186;2023-12-22T07:58:49;3.60;;;1.63;;
809;SDS011;387;48.772;9.186;2023-12-22T08:01:14;5.40;;;1.70;;
809;SDS011;387;48.772;9.186;2023-12-22T08:03:40;7.50;;;1.83;;
809;SDS011;387;48.772;9.186;2023-12-22T08:06:06;13.83;;;2.00;;
809;SDS011;387;48.772;9.186;2023-12-22T08:08:33;9.60;;;2.07;;
809;SDS011;387;48.772;9.186;2023-12-22T08:10:59;4.80;;;1.53;;
809;SDS011;387;48.772;9.186;2023-12-22T08:13:25;4.17;;;2.33;;
809;SDS011;387;48.772;9.186;2023-12-22T08:15:50;6.37;;;1.70;;
809;SDS011;387;48.772;9.186;2023-12-22T08:18:16;9.73;;;1.87;;
809;SDS011;387;48.772;9.186;2023-12-22T08:20:41;7.17;;;1.70;;
809;SDS011;387;48.772;9.186;2023-12-22T08:23:08;10.53;;;2.40;;
809;SDS011;387;48.772;9.186;2023-12-22T08:25:34;5.43;;;2.00;;
809;SDS011;387;48.772;9.186;2023-12-22T08:28:00;6.27;;;2.27;;
809;SDS011;387;48.772;9.186;2023-12-22T08:30:26;9.30;;;2.23;;
809;SDS011;387;48.772;9.186;2023-12-22T08:32:51;8.80;;;2.40;;
809;SDS011;387;48.772;9.186;2023-12-22T08:35:18;5.77;;;1.83;;
809;SDS011;387;48.772;9.186;2023-12-22T08:37:44;11.60;;;2.13;;
809;SDS011;387;48.772;9.186;2023-12-22T08:40:09;8.40;;;1.77;;
809;SDS011;387;48.772;9.186;2023-12-22T08:42:35;11.47;;;2.70;;
809;SDS011;387;48.772;9.186;2023-12-22T08:45:01;13.33;;;2.10;;
809;SDS011;387;48.772;9.186;2023-12-22T08:47:27;10.60;;;2.97;;
809;SDS011;387;48.772;9.186;2023-12-22T08:49:53;7.40;;;2.30;;
809;SDS011;387;48.772;9.186;2023-12-22T08:52:18;12.17;;;3.43;;
809;SDS011;387;48.772;9.186;2023-12-22T08:54:44;7.33;;;2.80;;
809;SDS011;387;48.772;9.186;2023-12-22T08:57:10;10.03;;;2.80;;
809;SDS011;387;48.772;9.186;2023-12-22T08:59:35;7.93;;;2.40;;
809;SDS011;387;48.772;9.186;2023-12-22T09:02:01;8.47;;;2.87;;
809;SDS011;387;48.772;9.186;2023-12-22T09:04:27;10.13;;;2.33;;
809;SDS011;387;48.772;9.186;2023-12-22T09:06:53;11.00;;;2.50;;
809;SDS011;387;48.772;9.186;2023-12-22T09:09:18;6.60;;;1.97;;
809;SDS011;387;48.772;9.186;2023-12-22T09:11:44;12.40;;;3.27;;
809;SDS011;387;48.772;9.186;2023-12-22T09:14:09;9.77;;;2.37;;
809;SDS011;387;48.772;9.186;2023-12-22T09:16:36;5.17;;;2.30;;
809;SDS011;387;48.772;9.186;2023-12-22T09:19:02;9.30;;;2.10;;
809;SDS011;387;48.772;9.186;2023-12-22T09:21:28;11.63;;;2.20;;
809;SDS011;387;48.772;9.186;2023-12-22T09:23:54;11.50;;;2.13;;
809;SDS011;387;48.772;9.186;2023-12-22T09:26:19;11.80;;;3.33;;
809;SDS011;387;48.772;9.186;2023-12-22T09:28:46;12.20;;;3.40;;
809;SDS011;387;48.772;9.186;2023-12-22T09:31:12;6.73;;;2.87;;
809;SDS011;387;48.772;9.186;2023-12-22T09:33:38;9.10;;;2.53;;
809;SDS011;387;48.772;9.186;2023-12-22T09:36:05;13.63;;;2.70;;
809;SDS011;387;48.772;9.186;2023-12-22T09:38:31;17.20;;;2.80;;
809;SDS011;387;48.772;9.186;2023-12-22T09:40:57;8.30;;;2.70;;
809;SDS011;387;48.772;9.186;2023-12-22T09:43:23;12.83;;;1.73;;
809;SDS011;387;48.772;9.186;2023-12-22T09:45:49;17.43;;;3.67;;
809;SDS011;387;48.772;9.186;2023-12-22T09:48:20;20.43;;;3.67;;
809;SDS011;387;48.772;9.186;2023-12-22T09:50:52;8.00;;;2.53;;
809;SDS011;387;48.772;9.186;2023-12-22T09:53:19;15.63;;;3.00;;
809;SDS011;387;48.772;9.186;2023-12-22T09:55:46;13.30;;;4.37;;
809;SDS011;387;48.772;9.186;2023-12-22T09:58:12;14.60;;;3.10;;
809;SDS011;387;48.772;9.186;2023-12-22T10:00:40;18.33;;;3.00;;
809;SDS011;387;48.772;9.186;2023-12-22T10:03:07;14.30;;;2.90;;
809;SDS011;387;48.772;9.186;2023-12-22T10:05:34;18.60;;;3.93;;
809;SDS011;387;48.772;9.186;2023-12-22T10:08:00;14.10;;;3.07;;
809;SDS011;387;48.772;9.186;2023-12-22T10:10:27;14.40;;;3.03;;
809;SDS011;387;48.772;9.186;2023-12-22T10:12:56;11.27;;;2.77;;
809;SDS011;387;48.772;9.186;2023-12-22T10:15:23;12.20;;;2.97;;
809;SDS011;387;48.772;9.186;2023-12-22T10:17:50;18.00;;;3.43;;
809;SDS011;387;48.772;9.186;2023-12-22T10:20:16;10.90;;;3.00;;
809;SDS011;387;48.772;9.186;2023-12-22T10:22:42;12.13;;;3.20;;
809;SDS011;387;48.772;9.186;2023-12-22T10:25:08;11.47;;;2.60;;
809;SDS011;387;48.772;9.186;2023-12-22T10:27:35;9.57;;;2.83;;
809;SDS011;387;48.772;9.186;2023-12-22T10:30:02;9.27;;;3.50;;
809;SDS011;387;48.772;9.186;2023-12-22T10:32:28;8.60;;;2.50;;
809;SDS011;387;48.772;9.186;2023-12-22T10:34:55;15.83;;;3.20;;
809;SDS011;387;48.772;9.186;2023-12-22T10:37:22;6.23;;;2.47;;
809;SDS011;387;48.772;9.186;2023-12-22T10:39:51;9.27;;;2.50;;
809;SDS011;387;48.772;9.186;2023-12-22T10:42:18;15.73;;;3.13;;
809;SDS011;387;48.772;9.186;2023-12-22T10:44:44;11.73;;;2.40;;
809;SDS011;387;48.772;9.186;2023-12-22T10:47:10;14.60;;;2.50;;
809;SDS011;387;48.772;9.186;2023-12-22T10:49:36;11.93;;;2.90;;
809;SDS011;387;48.772;9.186;2023-12-22T10:52:02;10.83;;;3.47;;
809;SDS011;387;48.772;9.186;2023-12-22T10:54:27;16.27;;;3.10;;
809;SDS011;387;48.772;9.186;2023-12-22T10:56:58;7.87;;;2.30;;
809;SDS011;387;48.772;9.186;2023-12-22T10:59:30;7.93;;;2.80;;
809;SDS011;387;48.772;9.186;2023-12-22T11:01:59;10.00;;;2.00;;
809;SDS011;387;48.772;9.186;2023-12-22T11:04:30;10.60;;;2.80;;
809;SDS011;387;48.772;9.186;2023-12-22T11:07:00;5.17;;;2.53;;
809;SDS011;387;48.772;9.186;2023-12-22T11:09:29;3.20;;;1.20;;
809;SDS011;387;48.772;9.186;2023-12-22T11:11:56;4.57;;;2.10;;
809;SDS011;387;48.772;9.186;2023-12-22T11:14:23;4.37;;;1.57;;
809;SDS011;387;48.772;9.186;2023-12-22T11:16:51;5.00;;;1.67;;
809;SDS011;387;48.772;9.186;2023-12-22T11:19:19;10.10;;;2.27;;
809;SDS011;387;48.772;9.186;2023-12-22T11:21:47;6.33;;;1.43;;
809;SDS011;387;48.772;9.186;2023-12-22T11:24:15;8.27;;;1.60;;
809;SDS011;387;48.772;9.186;2023-12-22T11:26:42;6.57;;;1.60;;
809;SDS011;387;48.772;9.186;2023-12-22T11:29:08;6.50;;;1.53;;
809;SDS011;387;48.772;9.186;2023-12-22T11:31:34;5.73;;;1.47;;
809;SDS011;387;48.772;9.186;2023-12-22T11:34:02;10.67;;;1.73;;
809;SDS011;387;48.772;9.186;2023-12-22T11:36:31;3.50;;;1.57;;
809;SDS011;387;48.772;9.186;2023-12-22T11:38:57;3.83;;;2.20;;
809;SDS011;387;48.772;9.186;2023-12-22T11:41:24;5.50;;;1.73;;
809;SDS011;387;48.772;9.186;2023-12-22T11:43:53;3.43;;;1.50;;
809;SDS011;387;48.772;9.186;2023-12-22T11:46:19;3.33;;;1.33;;
809;SDS011;387;48.772;9.186;2023-12-22T11:48:48;3.60;;;1.70;;
809;SDS011;387;48.772;9.186;2023-12-22T11:51:14;4.10;;;1.50;;
809;SDS011;387;48.772;9.186;2023-12-22T11:53:41;2.97;;;1.40;;
809;SDS011;387;48.772;9.186;2023-12-22T11:56:08;4.03;;;1.53;;
809;SDS011;387;48.772;9.186;2023-12-22T12:01:07;3.20;;;1.43;;
809;SDS011;387;48.772;9.186;2023-12-22T12:03:58;5.53;;;1.57;;
809;SDS011;387;48.772;9.186;2023-12-22T12:08:54;4.20;;;1.70;;
809;SDS011;387;48.772;9.186;2023-12-22T12:11:21;2.60;;;1.47;;
809;SDS011;387;48.772;9.186;2023-12-22T12:14:11;2.00;;;1.10;;
809;SDS011;387;48.772;9.186;2023-12-22T12:16:39;8.30;;;1.40;;
809;SDS011;387;48.772;9.186;2023-12-22T12:19:08;1.97;;;1.23;;
809;SDS011;387;48.772;9.186;2023-12-22T12:21:34;4.57;;;1.30;;
809;SDS011;387;48.772;9.186;2023-12-22T12:24:00;2.13;;;0.97;;
809;SDS011;387;48.772;9.186;2023-12-22T12:26:25;5.07;;;1.47;;
809;SDS011;387;48.772;9.186;2023-12-22T12:28:52;3.57;;;1.20;;
809;SDS011;387;48.772;9.186;2023-12-22T12:31:18;4.30;;;1.00;;
809;SDS011;387;48.772;9.186;2023-12-22T12:33:44;3.87;;;1.47;;
809;SDS011;387;48.772;9.186;2023-12-22T12:36:10;3.27;;;1.37;;
809;SDS011;387;48.772;9.186;2023-12-22T12:41:30;2.30;;;1.37;;
809;SDS011;387;48.772;9.186;2023-12-22T12:43:59;2.63;;;1.47;;
809;SDS011;387;48.772;9.186;2023-12-22T12:46:35;2.27;;;1.57;;
809;SDS011;387;48.772;9.186;2023-12-22T12:49:09;1.50;;;1.10;;
809;SDS011;387;48.772;9.186;2023-12-22T12:51:40;3.90;;;1.13;;
809;SDS011;387;48.772;9.186;2023-12-22T12:54:08;1.20;;;0.70;;
809;SDS011;387;48.772;9.186;2023-12-22T12:56:43;3.07;;;0.90;;
809;SDS011;387;48.772;9.186;2023-12-22T12:59:10;5.03;;;1.67;;
809;SDS011;387;48.772;9.186;2023-12-22T13:01:40;2.00;;;1.40;;
809;SDS011;387;48.772;9.186;2023-12-22T13:04:07;2.30;;;1.17;;
809;SDS011;387;48.772;9.186;2023-12-22T13:06:33;2.80;;;1.10;;
809;SDS011;387;48.772;9.186;2023-12-22T13:08:59;3.50;;;1.47;;
809;SDS011;387;48.772;9.186;2023-12-22T13:11:31;4.50;;;2.10;;
809;SDS011;387;48.772;9.186;2023-12-22T13:13:57;1.37;;;0.90;;
809;SDS011;387;48.772;9.186;2023-12-22T13:16:24;1.10;;;0.83;;
809;SDS011;387;48.772;9.186;2023-12-22T13:18:54;3.10;;;1.27;;
809;SDS011;387;48.772;9.186;2023-12-22T13:21:21;2.17;;;1.37;;
809;SDS011;387;48.772;9.186;2023-12-22T13:23:47;1.43;;;1.10;;
809;SDS011;387;48.772;9.186;2023-12-22T13:26:19;1.13;;;0.70;;
809;SDS011;387;48.772;9.186;2023-12-22T13:28:45;3.10;;;1.40;;
809;SDS011;387;48.772;9.186;2023-12-22T13:31:12;2.60;;;1.23;;
809;SDS011;387;48.772;9.186;2023-12-22T13:33:43;1.77;;;0.97;;
809;SDS011;387;48.772;9.186;2023-12-22T13:36:09;2.20;;;1.00;;
809;SDS011;387;48.772;9.186;2023-12-22T13:38:35;0.90;;;0.80;;
809;SDS011;387;48.772;9.186;2023-12-22T13:41:01;2.53;;;0.80;;
809;SDS011;387;48.772;9.186;2023-12-22T13:43:28;1.27;;;0.63;;
809;SDS011;387;48.772;9.186;2023-12-22T13:45:54;1.17;;;0.70;;
809;SDS011;387;48.772;9.186;2023-12-22T13:48:20;2.10;;;1.10;;
809;SDS011;387;48.772;9.186;2023-12-22T13:50:54;1.10;;;0.70;;
809;SDS011;387;48.772;9.186;2023-12-22T13:53:22;0.93;;;0.77;;
809;SDS011;387;48.772;9.186;2023-12-22T13:55:54;1.53;;;0.97;;
809;SDS011;387;48.772;9.186;2023-12-22T13:58:25;0.83;;;0.60;;
809;SDS011;387;48.772;9.186;2023-12-22T14:00:52;1.80;;;1.00;;
809;SDS011;387;48.772;9.186;2023-12-22T14:03:18;2.23;;;0.60;;
809;SDS011;387;48.772;9.186;2023-12-22T14:05:49;1.83;;;0.90;;
809;SDS011;387;48.772;9.186;2023-12-22T14:08:17;2.00;;;0.73;;
809;SDS011;387;48.772;9.186;2023-12-22T14:10:46;2.63;;;1.40;;
809;SDS011;387;48.772;9.186;2023-12-22T14:13:16;1.00;;;0.80;;
809;SDS011;387;48.772;9.186;2023-12-22T14:15:42;1.10;;;1.00;;
809;SDS011;387;48.772;9.186;2023-12-22T14:18:10;0.70;;;0.67;;
809;SDS011;387;48.772;9.186;2023-12-22T14:20:36;2.27;;;0.67;;
809;SDS011;387;48.772;9.186;2023-12-22T14:23:02;2.10;;;0.70;;
809;SDS011;387;48.772;9.186;2023-12-22T14:25:28;1.10;;;0.60;;
809;SDS011;387;48.772;9.186;2023-12-22T14:27:55;0.90;;;0.70;;
809;SDS011;387;48.772;9.186;2023-12-22T14:30:25;0.90;;;0.60;;
809;SDS011;387;48.772;9.186;2023-12-22T14:32:50;2.90;;;1.23;;
809;SDS011;387;48.772;9.186;2023-12-22T14:35:16;1.80;;;1.00;;
809;SDS011;387;48.772;9.186;2023-12-22T14:37:41;1.87;;;0.80;;
809;SDS011;387;48.772;9.186;2023-12-22T14:40:08;2.10;;;1.10;;
809;SDS011;387;48.772;9.186;2023-12-22T14:42:34;1.10;;;0.80;;
809;SDS011;387;48.772;9.186;2023-12-22T14:44:59;1.63;;;1.10;;
809;SDS011;387;48.772;9.186;2023-12-22T14:47:27;1.40;;;0.70;;
809;SDS011;387;48.772;9.186;2023-12-22T14:49:52;0.87;;;0.60;;
809;SDS011;387;48.772;9.186;2023-12-22T14:52:18;1.10;;;0.70;;
809;SDS011;387;48.772;9.186;2023-12-22T14:54:45;0.97;;;0.60;;
809;SDS011;387;48.772;9.186;2023-12-22T14:57:11;1.60;;;0.73;;
809;SDS011;387;48.772;9.186;2023-12-22T14:59:37;1.47;;;0.90;;
809;SDS011;387;48.772;9.186;2023-12-22T15:02:02;1.00;;;0.60;;
809;SDS011;387;48.772;9.186;2023-12-22T15:04:30;1.10;;;0.87;;
809;SDS011;387;48.772;9.186;2023-12-22T15:06:57;1.10;;;0.70;;
809;SDS011;387;48.772;9.186;2023-12-22T15:09:22;1.20;;;0.70;;
809;SDS011;387;48.772;9.186;2023-12-22T15:11:48;0.73;;;0.70;;
809;SDS011;387;48.772;9.186;2023-12-22T15:14:15;1.00;;;0.70;;
809;SDS011;387;48.772;9.186;2023-12-22T15:16:42;1.20;;;0.80;;
809;SDS011;387;48.772;9.186;2023-12-22T15:19:13;0.87;;;0.60;;
809;SDS011;387;48.772;9.186;2023-12-22T15:21:39;0.83;;;0.60;;
809;SDS011;387;48.772;9.186;2023-12-22T15:24:05;1.13;;;0.77;;
809;SDS011;387;48.772;9.186;2023-12-22T15:26:31;0.90;;;0.80;;
809;SDS011;387;48.772;9.186;2023-12-22T15:28:58;0.80;;;0.60;;
809;SDS011;387;48.772;9.186;2023-12-22T15:31:24;1.00;;;0.70;;
809;SDS011;387;48.772;9.186;2023-12-22T15:33:50;6.57;;;1.03;;
809;SDS011;387;48.772;9.186;2023-12-22T15:36:16;0.90;;;0.70;;
809;SDS011;387;48.772;9.186;2023-12-22T15:38:44;1.43;;;0.90;;
809;SDS011;387;48.772;9.186;2023-12-22T15:41:10;1.10;;;0.60;;
809;SDS011;387;48.772;9.186;2023-12-22T15:43:36;2.80;;;0.90;;
809;SDS011;387;48.772;9.186;2023-12-22T15:46:05;0.80;;;0.60;;
809;SDS011;387;48.772;9.186;2023-12-22T15:48:31;0.90;;;0.77;;
809;SDS011;387;48.772;9.186;2023-12-22T15:50:57;1.40;;;0.90;;